Time;durP1;ratioP1;P1;durP2;ratioP2;P2;SDS_P1;SDS_P2;PMS_P1;PMS_P2;Temp;Humidity;BMP_temperature;BMP_pressure;BME280_temperature;BME280_humidity;BME280_pressure;Samples;Min_cycle;Max_cycle;Signal;HPM_P1;HPM_P2
2024/02/16 00:02:24;;;;;;;4.70;2.20;;;;;;;12.16;100.00;101051.38;6097593;23;20437;-66
2024/02/16 00:04:53;;;;;;;2.60;1.67;;;;;;;12.19;100.00;101045.53;6071980;23;20808;-65
2024/02/16 00:07:22;;;;;;;3.30;3.00;;;;;;;12.11;100.00;101041.16;6097253;23;20354;-66
2024/02/16 00:09:51;;;;;;;2.57;2.30;;;;;;;12.21;100.00;101054.28;6097501;23;20394;-65
2024/02/16 00:12:20;;;;;;;3.30;2.67;;;;;;;12.24;100.00;101053.06;6097678;23;20917;-68
2024/02/16 00:14:48;;;;;;;4.67;2.37;;;;;;;12.05;100.00;101060.97;6097353;23;20453;-67
2024/02/16 00:17:17;;;;;;;6.73;2.87;;;;;;;11.77;100.00;101053.00;6097437;23;20734;-66
2024/02/16 00:19:47;;;;;;;4.00;2.97;;;;;;;12.14;100.00;101054.31;6097656;23;20407;-67
2024/02/16 00:22:16;;;;;;;3.10;1.90;;;;;;;12.10;100.00;101053.03;6100258;23;20376;-67
2024/02/16 00:24:45;;;;;;;6.87;2.30;;;;;;;11.95;100.00;101052.41;6099274;23;20366;-69
2024/02/16 00:27:14;;;;;;;4.07;2.60;;;;;;;12.20;100.00;101052.63;6098247;23;20351;-67
2024/02/16 00:29:43;;;;;;;2.67;2.47;;;;;;;11.94;100.00;101047.19;6098291;23;20441;-65
2024/02/16 00:32:12;;;;;;;4.17;3.50;;;;;;;12.00;100.00;101040.94;6096262;23;20405;-66
2024/02/16 00:34:41;;;;;;;5.23;1.97;;;;;;;12.05;100.00;101052.00;6096866;23;20366;-67
2024/02/16 00:37:12;;;;;;;3.73;2.63;;;;;;;11.88;100.00;101046.13;6096261;23;20371;-67
2024/02/16 00:39:41;;;;;;;3.00;2.23;;;;;;;12.18;100.00;101043.88;6096262;23;20454;-68
2024/02/16 00:42:10;;;;;;;3.87;2.30;;;;;;;12.03;100.00;101051.38;6096701;23;20847;-67
2024/02/16 00:44:39;;;;;;;4.40;2.37;;;;;;;12.27;100.00;101042.59;6096966;23;20903;-67
2024/02/16 00:47:10;;;;;;;3.50;2.97;;;;;;;11.81;100.00;101044.47;6096227;23;20373;-67
2024/02/16 00:49:38;;;;;;;4.93;4.50;;;;;;;11.89;100.00;101038.84;6096436;23;20531;-67
2024/02/16 00:52:07;;;;;;;2.50;2.13;;;;;;;11.99;100.00;101039.28;6096577;23;20383;-67
2024/02/16 00:54:38;;;;;;;2.90;2.20;;;;;;;11.93;100.00;101040.94;6096880;23;20930;-66
2024/02/16 00:57:07;;;;;;;5.27;2.97;;;;;;;11.89;100.00;101039.69;6096023;23;20717;-66
2024/02/16 00:59:36;;;;;;;3.73;2.30;;;;;;;11.93;100.00;101038.22;6096149;23;20407;-66
2024/02/16 01:02:04;;;;;;;3.20;2.40;;;;;;;11.84;100.00;101036.75;6096939;23;20358;-67
2024/02/16 01:04:33;;;;;;;4.37;3.17;;;;;;;11.73;100.00;101032.78;6097559;23;20366;-67
2024/02/16 01:07:02;;;;;;;2.40;2.20;;;;;;;11.90;100.00;101029.69;6096591;23;20367;-67
2024/02/16 01:09:31;;;;;;;4.37;3.57;;;;;;;11.66;100.00;101029.19;6096426;23;20500;-66
2024/02/16 01:12:02;;;;;;;4.87;2.47;;;;;;;11.46;100.00;101028.31;6096488;23;20443;-67
2024/02/16 01:14:31;;;;;;;3.77;3.23;;;;;;;11.68;100.00;101018.13;6096919;23;20690;-66
2024/02/16 01:16:59;;;;;;;5.67;2.70;;;;;;;11.72;100.00;101016.66;6070943;23;20415;-66
2024/02/16 01:19:28;;;;;;;5.10;4.17;;;;;;;11.38;100.00;101016.81;6096167;23;20382;-65
2024/02/16 01:21:58;;;;;;;5.43;4.00;;;;;;;11.74;100.00;101012.75;6096360;23;20366;-68
2024/02/16 01:24:27;;;;;;;5.67;2.30;;;;;;;11.91;100.00;101015.88;6096747;23;20357;-65
2024/02/16 01:26:57;;;;;;;7.30;4.80;;;;;;;11.95;100.00;101016.34;6096340;23;20399;-66
2024/02/16 01:29:27;;;;;;;7.93;3.87;;;;;;;12.00;100.00;101011.94;6096382;23;20393;-66
2024/02/16 01:31:55;;;;;;;4.77;4.07;;;;;;;12.09;100.00;101018.00;6097614;23;20757;-67
2024/02/16 01:34:24;;;;;;;4.93;3.40;;;;;;;11.78;100.00;101010.47;6099165;23;20394;-66
2024/02/16 01:36:53;;;;;;;3.40;2.53;;;;;;;11.59;100.00;101014.78;6101632;23;20370;-66
2024/02/16 01:39:22;;;;;;;4.27;3.63;;;;;;;11.90;100.00;101013.41;6099801;23;20386;-67
2024/02/16 01:41:51;;;;;;;5.97;3.80;;;;;;;11.69;100.00;101007.09;6097671;23;20933;-66
2024/02/16 01:44:19;;;;;;;3.80;3.43;;;;;;;12.04;100.00;101009.66;6096556;23;20366;-66
2024/02/16 01:46:50;;;;;;;4.90;3.90;;;;;;;11.70;100.00;101007.94;6096340;23;20351;-66
2024/02/16 01:49:18;;;;;;;3.90;2.43;;;;;;;11.80;100.00;101002.13;6096049;23;20724;-66
2024/02/16 01:51:48;;;;;;;6.40;4.37;;;;;;;11.50;100.00;101001.63;6096566;23;20378;-68
2024/02/16 01:54:17;;;;;;;5.07;3.30;;;;;;;11.74;100.00;101001.91;6096280;23;20703;-67
2024/02/16 01:56:48;;;;;;;4.77;3.03;;;;;;;11.74;100.00;100991.06;6095685;23;20423;-66
2024/02/16 01:59:17;;;;;;;4.70;3.37;;;;;;;11.80;100.00;100984.00;6096098;23;20528;-69
2024/02/16 02:01:46;;;;;;;3.97;2.70;;;;;;;11.64;100.00;100979.78;6096524;23;20438;-68
2024/02/16 02:04:17;;;;;;;4.97;4.43;;;;;;;11.51;100.00;100971.63;6096474;23;20392;-69
2024/02/16 02:06:46;;;;;;;4.27;3.20;;;;;;;11.54;100.00;100976.63;6096150;23;20449;-69
2024/02/16 02:09:15;;;;;;;5.20;2.40;;;;;;;11.51;100.00;100977.06;6096595;23;20390;-69
2024/02/16 02:11:44;;;;;;;3.87;2.63;;;;;;;11.56;100.00;100973.72;6094847;23;20489;-68
2024/02/16 02:14:13;;;;;;;3.13;2.83;;;;;;;11.44;100.00;100965.34;6096099;23;20382;-68
2024/02/16 02:16:42;;;;;;;4.80;2.83;;;;;;;11.54;100.00;100960.38;6070604;23;20411;-69
2024/02/16 02:19:24;;;;;;;6.30;4.40;;;;;;;11.68;100.00;100953.06;6070420;23;20416;-69
2024/02/16 02:21:53;;;;;;;4.87;3.63;;;;;;;11.52;100.00;100939.94;6095736;23;20411;-67
2024/02/16 02:24:23;;;;;;;4.80;3.30;;;;;;;11.24;100.00;100945.50;6096753;23;20409;-66
2024/02/16 02:26:52;;;;;;;4.57;4.17;;;;;;;11.19;100.00;100943.41;6096083;23;20376;-69
2024/02/16 02:29:33;;;;;;;4.77;3.60;;;;;;;11.73;100.00;100942.47;6095946;23;20734;-68
2024/02/16 02:32:02;;;;;;;3.97;3.60;;;;;;;11.65;100.00;100938.06;6096204;23;20390;-68
2024/02/16 02:34:30;;;;;;;6.27;3.93;;;;;;;11.64;100.00;100933.69;6096387;23;20351;-68
2024/02/16 02:36:59;;;;;;;8.03;4.47;;;;;;;11.17;100.00;100936.56;6096281;23;20372;-69
2024/02/16 02:39:29;;;;;;;4.17;3.10;;;;;;;11.48;100.00;100934.09;6070987;23;20406;-69
2024/02/16 02:41:58;;;;;;;4.63;3.60;;;;;;;11.54;100.00;100933.25;6096104;23;20372;-68
2024/02/16 02:44:27;;;;;;;10.50;4.80;;;;;;;11.45;100.00;100929.09;6096532;23;20397;-69
2024/02/16 02:46:56;;;;;;;8.43;4.80;;;;;;;10.88;100.00;100933.13;6096264;23;20354;-68
2024/02/16 02:49:24;;;;;;;5.37;2.63;;;;;;;10.90;100.00;100922.94;6099409;23;20437;-70
2024/02/16 02:51:53;;;;;;;6.00;4.53;;;;;;;11.38;100.00;100922.81;6098711;23;20402;-69
2024/02/16 02:54:22;;;;;;;8.57;4.60;;;;;;;11.57;100.00;100919.28;6097760;23;20777;-69
2024/02/16 02:56:53;;;;;;;6.90;2.97;;;;;;;11.45;100.00;100929.09;6096140;23;20447;-67
2024/02/16 02:59:21;;;;;;;5.37;4.27;;;;;;;11.54;100.00;100927.00;6095675;23;20412;-69
2024/02/16 03:01:50;;;;;;;5.03;3.63;;;;;;;11.70;100.00;100918.47;6096220;23;20906;-69
2024/02/16 03:04:19;;;;;;;4.73;3.20;;;;;;;11.56;100.00;100925.78;6096191;23;20354;-69
2024/02/16 03:06:48;;;;;;;5.87;4.17;;;;;;;11.30;100.00;100915.72;6070406;23;20373;-70
2024/02/16 03:09:17;;;;;;;5.17;2.90;;;;;;;11.25;100.00;100923.66;6095563;23;20411;-67
2024/02/16 03:11:46;;;;;;;5.13;3.87;;;;;;;11.33;100.00;100922.59;6095965;23;20390;-69
2024/02/16 03:14:16;;;;;;;5.73;5.10;;;;;;;11.35;100.00;100928.66;6095943;23;20370;-68
2024/02/16 03:16:45;;;;;;;4.43;3.00;;;;;;;11.24;100.00;100929.25;6096280;23;20383;-69
2024/02/16 03:19:14;;;;;;;4.33;3.70;;;;;;;10.97;100.00;100932.94;6095662;23;20414;-69
2024/02/16 03:21:43;;;;;;;4.90;4.10;;;;;;;11.17;100.00;100928.44;6095916;23;20343;-67
2024/02/16 03:24:12;;;;;;;4.13;3.13;;;;;;;10.94;100.00;100926.06;6095853;23;20388;-69
2024/02/16 03:26:42;;;;;;;4.87;3.30;;;;;;;11.18;100.00;100927.41;6095709;23;20359;-69
2024/02/16 03:29:10;;;;;;;3.27;2.97;;;;;;;10.74;100.00;100920.59;6095276;23;20415;-69
2024/02/16 03:31:40;;;;;;;5.00;3.13;;;;;;;10.94;100.00;100917.13;6095778;23;20486;-68
2024/02/16 03:34:09;;;;;;;6.00;3.70;;;;;;;10.78;100.00;100913.75;6097588;23;20376;-68
2024/02/16 03:36:38;;;;;;;4.77;3.50;;;;;;;11.12;100.00;100914.66;6098066;23;20395;-68
2024/02/16 03:39:08;;;;;;;4.33;3.87;;;;;;;11.36;100.00;100918.66;6097343;23;20428;-67
2024/02/16 03:41:37;;;;;;;5.53;3.93;;;;;;;11.34;100.00;100911.56;6097472;23;20397;-69
2024/02/16 03:44:06;;;;;;;8.07;4.13;;;;;;;11.38;100.00;100909.28;6097772;23;20383;-68
2024/02/16 03:46:37;;;;;;;8.30;5.33;;;;;;;11.66;100.00;100903.66;6097367;23;20769;-68
2024/02/16 03:49:07;;;;;;;4.53;3.73;;;;;;;11.46;100.00;100909.09;6096915;23;20398;-69
2024/02/16 03:51:37;;;;;;;6.87;4.47;;;;;;;11.51;100.00;100912.00;6099810;23;20418;-68
2024/02/16 03:54:06;;;;;;;8.03;2.80;;;;;;;11.21;100.00;100906.13;6100167;23;20710;-69
2024/02/16 03:56:35;;;;;;;6.53;4.27;;;;;;;11.44;100.00;100904.91;6100419;23;20372;-69
2024/02/16 03:59:05;;;;;;;5.70;4.93;;;;;;;11.33;100.00;100903.63;6100445;23;20426;-68
2024/02/16 04:01:37;;;;;;;6.40;4.40;;;;;;;11.30;100.00;100901.34;6100591;23;20365;-69
2024/02/16 04:04:07;;;;;;;6.43;3.87;;;;;;;11.58;100.00;100896.56;6098312;23;20350;-68
2024/02/16 04:06:36;;;;;;;5.47;3.97;;;;;;;11.71;100.00;100893.84;6098878;23;20355;-69
2024/02/16 04:09:05;;;;;;;5.60;3.00;;;;;;;11.61;100.00;100885.31;6098564;23;20390;-69
2024/02/16 04:11:35;;;;;;;3.80;3.43;;;;;;;11.15;100.00;100895.28;6101644;23;20390;-68
2024/02/16 04:14:04;;;;;;;4.40;3.63;;;;;;;11.39;100.00;100897.41;6100021;23;20765;-68
2024/02/16 04:16:33;;;;;;;7.67;3.80;;;;;;;11.07;100.00;100892.78;6100506;23;20760;-68
2024/02/16 04:19:02;;;;;;;5.30;3.20;;;;;;;11.20;100.00;100888.22;6097971;23;20645;-67
2024/02/16 04:21:33;;;;;;;7.47;4.70;;;;;;;11.70;100.00;100891.38;6097111;23;20374;-67
2024/02/16 04:24:01;;;;;;;5.00;3.50;;;;;;;11.48;100.00;100896.16;6097548;23;20354;-67
2024/02/16 04:26:30;;;;;;;7.33;4.47;;;;;;;11.00;100.00;100887.34;6097139;23;20383;-69
2024/02/16 04:28:59;;;;;;;2.80;2.60;;;;;;;11.12;100.00;100890.28;6096617;23;20386;-69
2024/02/16 04:31:28;;;;;;;4.67;3.10;;;;;;;11.27;100.00;100885.53;6096879;23;20536;-69
2024/02/16 04:33:57;;;;;;;5.93;2.73;;;;;;;11.41;100.00;100881.78;6097102;23;20351;-68
2024/02/16 04:36:26;;;;;;;4.57;3.40;;;;;;;11.44;100.00;100873.22;6097277;23;20358;-68
2024/02/16 04:38:56;;;;;;;3.73;3.43;;;;;;;11.29;100.00;100883.41;6097065;23;20760;-67
2024/02/16 04:41:25;;;;;;;6.67;4.07;;;;;;;11.16;100.00;100878.00;6096794;23;20343;-68
2024/02/16 04:43:54;;;;;;;4.27;2.70;;;;;;;11.48;100.00;100879.88;6096501;23;20347;-68
2024/02/16 04:46:22;;;;;;;4.80;4.43;;;;;;;11.65;100.00;100880.31;6096494;23;20752;-67
2024/02/16 04:48:51;;;;;;;5.17;3.63;;;;;;;11.28;100.00;100862.78;6096721;23;20938;-66
2024/02/16 04:51:20;;;;;;;4.97;3.73;;;;;;;11.41;100.00;100870.09;6097234;23;20449;-68
2024/02/16 04:53:49;;;;;;;2.50;2.30;;;;;;;10.97;100.00;100866.09;6097409;23;20372;-68
2024/02/16 04:56:19;;;;;;;4.43;3.60;;;;;;;11.09;100.00;100858.19;6071063;23;20411;-68
2024/02/16 04:58:48;;;;;;;5.47;3.10;;;;;;;10.82;100.00;100852.72;6096789;23;20413;-70
2024/02/16 05:01:16;;;;;;;4.87;3.10;;;;;;;11.54;100.00;100862.78;6096766;23;20366;-69
2024/02/16 05:03:45;;;;;;;3.10;2.80;;;;;;;11.46;100.00;100863.03;6096671;23;20350;-68
2024/02/16 05:06:15;;;;;;;2.67;2.47;;;;;;;11.85;100.00;100866.78;6096499;23;20388;-70
2024/02/16 05:08:44;;;;;;;5.83;5.33;;;;;;;11.52;100.00;100864.06;6096848;23;20382;-69
2024/02/16 05:11:12;;;;;;;3.30;3.00;;;;;;;11.40;100.00;100861.13;6096237;23;20951;-69
2024/02/16 05:13:44;;;;;;;3.93;2.60;;;;;;;10.85;100.00;100857.72;6096793;23;20840;-67
2024/02/16 05:16:13;;;;;;;3.87;2.67;;;;;;;10.63;100.00;100858.94;6096595;23;20376;-68
2024/02/16 05:18:41;;;;;;;4.53;3.50;;;;;;;10.69;100.00;100863.53;6096855;23;20983;-66
2024/02/16 05:21:10;;;;;;;5.97;3.90;;;;;;;10.41;100.00;100854.66;6097107;23;20355;-66
2024/02/16 05:23:39;;;;;;;4.63;3.53;;;;;;;10.54;100.00;100854.75;6096662;23;20423;-68
2024/02/16 05:26:08;;;;;;;5.53;3.07;;;;;;;10.53;100.00;100844.94;6096705;23;20399;-68
2024/02/16 05:28:37;;;;;;;3.53;2.50;;;;;;;10.45;100.00;100845.97;6096078;23;20414;-66
2024/02/16 05:31:15;;;;;;;4.10;2.57;;;;;;;10.42;100.00;100834.69;6096389;23;20391;-69
2024/02/16 05:33:45;;;;;;;4.90;3.37;;;;;;;10.80;100.00;100835.84;6096437;23;20401;-68
2024/02/16 05:36:18;;;;;;;3.33;2.90;;;;;;;10.52;100.00;100824.31;6096399;23;20753;-67
2024/02/16 05:38:47;;;;;;;4.40;3.23;;;;;;;10.22;100.00;100820.25;6096123;23;20469;-67
2024/02/16 05:41:18;;;;;;;8.50;4.33;;;;;;;10.08;100.00;100810.38;6096281;23;20431;-68
2024/02/16 05:44:18;;;;;;;5.37;3.93;;;;;;;9.96;100.00;100813.69;6096263;23;20364;-68
2024/02/16 05:46:49;;;;;;;5.18;3.00;;;;;;;9.83;100.00;100807.34;6096436;23;20403;-68
2024/02/16 05:49:19;;;;;;;6.70;3.67;;;;;;;9.78;100.00;100816.06;6095767;23;20191;-68
2024/02/16 05:52:17;;;;;;;5.63;4.40;;;;;;;9.64;100.00;100816.16;6096722;23;20903;-70
2024/02/16 05:54:47;;;;;;;3.73;3.33;;;;;;;9.71;100.00;100815.19;6096388;23;20376;-68
2024/02/16 05:57:18;;;;;;;6.80;3.87;;;;;;;9.70;100.00;100824.31;6096203;23;20358;-68
2024/02/16 05:59:47;;;;;;;4.33;2.83;;;;;;;9.68;100.00;100831.81;6096107;23;20404;-69
2024/02/16 06:02:20;;;;;;;3.37;2.73;;;;;;;9.57;100.00;100833.19;6096492;23;20372;-68
2024/02/16 06:04:49;;;;;;;7.60;2.97;;;;;;;9.44;100.00;100824.16;6096476;23;20835;-68
2024/02/16 06:07:18;;;;;;;5.33;4.23;;;;;;;9.52;100.00;100824.00;6095992;23;20412;-68
2024/02/16 06:09:48;;;;;;;3.57;2.90;;;;;;;9.42;100.00;100813.53;6096343;23;20388;-69
2024/02/16 06:12:17;;;;;;;4.27;3.07;;;;;;;9.55;100.00;100801.97;6095803;23;20455;-68
2024/02/16 06:14:46;;;;;;;4.33;3.33;;;;;;;9.70;100.00;100801.88;6070679;23;20385;-69
2024/02/16 06:17:15;;;;;;;2.20;2.00;;;;;;;9.60;100.00;100807.63;6096113;23;20355;-68
2024/02/16 06:19:45;;;;;;;3.77;2.70;;;;;;;9.59;100.00;100803.25;6095935;23;20407;-69
2024/02/16 06:22:14;;;;;;;7.10;3.63;;;;;;;9.62;100.00;100802.88;6096478;23;20900;-69
2024/02/16 06:24:44;;;;;;;6.10;3.53;;;;;;;9.57;100.00;100805.34;6096563;23;20379;-69
2024/02/16 06:27:13;;;;;;;4.00;3.60;;;;;;;9.62;100.00;100788.53;6103806;23;20384;-69
2024/02/16 06:29:42;;;;;;;4.40;2.57;;;;;;;9.62;100.00;100805.56;6099421;23;20442;-69
2024/02/16 06:32:12;;;;;;;6.03;4.63;;;;;;;9.54;100.00;100797.59;6097726;23;20545;-68
2024/02/16 06:34:41;;;;;;;3.75;3.10;;;;;;;9.52;100.00;100791.59;6096661;23;20394;-67
2024/02/16 06:37:12;;;;;;;5.88;3.20;;;;;;;9.54;100.00;100797.59;6095967;23;20194;-67
2024/02/16 06:39:45;;;;;;;4.90;3.40;;;;;;;9.73;100.00;100810.41;6095691;23;20187;-69
2024/02/16 06:42:14;;;;;;;10.47;2.00;;;;;;;9.66;100.00;100825.75;6096345;23;20383;-66
2024/02/16 06:44:43;;;;;;;7.27;4.77;;;;;;;9.72;100.00;100835.78;6096531;23;20829;-66
2024/02/16 06:47:12;;;;;;;3.13;2.80;;;;;;;9.76;100.00;100828.94;6096062;23;20394;-68
2024/02/16 06:49:41;;;;;;;3.20;2.77;;;;;;;9.65;100.00;100826.78;6095360;23;20747;-68
2024/02/16 06:52:12;;;;;;;3.97;3.57;;;;;;;9.70;100.00;100821.63;6096035;23;20713;-68
2024/02/16 06:54:41;;;;;;;4.33;3.63;;;;;;;9.64;100.00;100826.97;6095715;23;20386;-68
2024/02/16 06:57:10;;;;;;;5.43;3.60;;;;;;;9.48;100.00;100830.84;6095464;23;20673;-67
2024/02/16 06:59:41;;;;;;;4.20;3.83;;;;;;;9.64;100.00;100825.09;6095484;23;20383;-67
2024/02/16 07:02:11;;;;;;;5.07;4.43;;;;;;;9.68;100.00;100818.31;6094870;23;20392;-67
2024/02/16 07:04:41;;;;;;;4.33;3.40;;;;;;;9.64;100.00;100814.31;6095501;23;20365;-69
2024/02/16 07:07:11;;;;;;;2.37;2.13;;;;;;;9.70;100.00;100818.91;6096015;23;20394;-70
2024/02/16 07:09:41;;;;;;;7.37;4.47;;;;;;;9.78;100.00;100823.34;6097910;23;20748;-67
2024/02/16 07:12:12;;;;;;;7.30;2.90;;;;;;;9.78;100.00;100826.84;6098474;23;20631;-68
2024/02/16 07:14:41;;;;;;;4.63;2.77;;;;;;;9.78;100.00;100824.16;6098631;23;20462;-69
2024/02/16 07:17:10;;;;;;;4.07;3.37;;;;;;;9.81;100.00;100823.78;6098561;23;20406;-69
2024/02/16 07:19:39;;;;;;;6.40;3.30;;;;;;;9.82;100.00;100820.03;6099263;23;20439;-68
2024/02/16 07:22:07;;;;;;;4.37;3.07;;;;;;;9.91;100.00;100821.56;6098618;23;20392;-68
2024/02/16 07:24:38;;;;;;;8.53;3.47;;;;;;;10.12;100.00;100817.88;6098749;23;20741;-69
2024/02/16 07:27:06;;;;;;;6.10;3.67;;;;;;;10.17;100.00;100822.72;6099926;23;20350;-65
2024/02/16 07:29:35;;;;;;;4.40;4.00;;;;;;;10.11;100.00;100818.13;6099402;23;20419;-68
2024/02/16 07:32:05;;;;;;;5.23;3.00;;;;;;;10.18;100.00;100816.28;6099004;23;20382;-68
2024/02/16 07:34:33;;;;;;;4.00;3.60;;;;;;;10.23;100.00;100811.13;6099334;23;20415;-68
2024/02/16 07:37:02;;;;;;;5.30;3.53;;;;;;;10.43;100.00;100809.31;6098170;23;20435;-70
2024/02/16 07:39:31;;;;;;;7.13;5.40;;;;;;;10.66;100.00;100809.78;6098851;23;20896;-68
2024/02/16 07:42:01;;;;;;;3.63;2.60;;;;;;;10.77;100.00;100803.78;6099217;23;20376;-68
2024/02/16 07:44:30;;;;;;;3.97;2.70;;;;;;;10.79;100.00;100809.84;6098474;23;20436;-68
2024/02/16 07:46:59;;;;;;;3.23;2.20;;;;;;;10.81;100.00;100813.16;6097612;23;20395;-68
2024/02/16 07:49:28;;;;;;;5.20;3.60;;;;;;;10.94;100.00;100806.13;6097221;23;20423;-68
2024/02/16 07:51:57;;;;;;;7.67;4.23;;;;;;;11.09;100.00;100798.59;6097439;23;20395;-68
2024/02/16 07:54:26;;;;;;;5.40;2.50;;;;;;;11.19;100.00;100804.44;6096943;23;20755;-67
2024/02/16 07:56:54;;;;;;;7.57;3.73;;;;;;;11.25;100.00;100809.03;6096863;23;20423;-68
2024/02/16 07:59:27;;;;;;;3.97;3.00;;;;;;;11.21;100.00;100805.06;6096799;23;20466;-66
2024/02/16 08:01:56;;;;;;;4.50;3.13;;;;;;;11.35;100.00;100804.03;6097041;23;20447;-68
2024/02/16 08:04:24;;;;;;;5.37;3.63;;;;;;;11.55;100.00;100810.28;6097315;23;20372;-69
2024/02/16 08:06:53;;;;;;;4.00;3.10;;;;;;;11.67;100.00;100821.28;6097217;23;20376;-67
2024/02/16 08:09:23;;;;;;;5.37;3.60;;;;;;;11.75;100.00;100819.25;6096733;23;20411;-67
2024/02/16 08:11:52;;;;;;;3.00;2.63;;;;;;;11.84;100.00;100821.72;6096549;23;20376;-68
2024/02/16 08:14:21;;;;;;;6.00;4.03;;;;;;;12.05;100.00;100827.69;6097147;23;20777;-65
2024/02/16 08:16:51;;;;;;;4.30;3.23;;;;;;;12.03;100.00;100829.81;6096689;23;20447;-69
2024/02/16 08:19:36;;;;;;;4.10;3.70;;;;;;;12.13;100.00;100834.78;6096340;23;20392;-65
2024/02/16 08:22:07;;;;;;;11.57;5.03;;;;;;;12.13;100.00;100835.63;6071960;23;20978;-65
2024/02/16 08:24:36;;;;;;;4.23;3.03;;;;;;;12.09;99.73;100837.09;6097683;23;20358;-66
2024/02/16 08:27:05;;;;;;;4.87;3.63;;;;;;;12.36;99.71;100840.53;6097366;23;20875;-66
2024/02/16 08:29:34;;;;;;;4.20;2.53;;;;;;;12.36;98.03;100835.09;6097388;23;20408;-68
2024/02/16 08:32:05;;;;;;;5.10;3.10;;;;;;;12.35;97.68;100828.00;6097306;23;20375;-68
2024/02/16 08:34:36;;;;;;;8.20;4.77;;;;;;;12.45;97.10;100836.53;6097006;23;20464;-68
2024/02/16 08:37:06;;;;;;;4.03;3.40;;;;;;;12.30;98.34;100830.53;6102641;23;20351;-69
2024/02/16 08:39:38;;;;;;;4.83;3.43;;;;;;;12.31;98.23;100826.78;6098840;23;20390;-66
2024/02/16 08:42:08;;;;;;;5.30;2.37;;;;;;;12.40;98.05;100828.19;6098067;23;20350;-65
2024/02/16 08:44:38;;;;;;;7.20;3.77;;;;;;;12.55;97.73;100834.19;6071411;23;20395;-66
2024/02/16 08:47:09;;;;;;;4.53;3.70;;;;;;;12.51;97.14;100827.53;6097304;23;20376;-64
2024/02/16 08:49:38;;;;;;;6.90;3.43;;;;;;;12.42;97.06;100817.97;6096893;23;20510;-65
2024/02/16 08:52:08;;;;;;;3.80;2.80;;;;;;;12.24;97.54;100815.13;6097026;23;20366;-67
2024/02/16 08:54:37;;;;;;;4.77;2.80;;;;;;;12.43;97.23;100814.22;6097158;23;20405;-66
2024/02/16 08:57:07;;;;;;;5.30;3.23;;;;;;;12.40;96.67;100814.63;6099939;23;20398;-67
2024/02/16 08:59:35;;;;;;;3.63;2.50;;;;;;;12.46;97.62;100808.34;6097650;23;20708;-66
2024/02/16 09:02:17;;;;;;;4.50;2.93;;;;;;;12.67;95.93;100809.06;6097440;23;20358;-65
2024/02/16 09:04:47;;;;;;;4.13;2.77;;;;;;;12.74;95.46;100809.84;6097212;23;20346;-63
2024/02/16 09:07:16;;;;;;;6.63;2.90;;;;;;;12.70;95.40;100803.19;6096500;23;20355;-65
2024/02/16 09:09:45;;;;;;;5.37;3.37;;;;;;;12.72;94.94;100801.09;6096266;23;20429;-66
2024/02/16 09:12:14;;;;;;;4.13;3.00;;;;;;;12.76;95.25;100803.16;6096231;23;20351;-68
2024/02/16 09:14:43;;;;;;;5.27;2.97;;;;;;;12.91;94.38;100802.84;6096056;23;20416;-65
2024/02/16 09:17:13;;;;;;;2.57;2.30;;;;;;;12.97;93.59;100802.78;6096303;23;20379;-66
2024/02/16 09:19:43;;;;;;;4.50;2.60;;;;;;;12.99;93.50;100808.00;6070344;23;20427;-66
2024/02/16 09:22:12;;;;;;;3.30;1.97;;;;;;;12.98;93.39;100803.63;6070909;23;20470;-66
2024/02/16 09:24:41;;;;;;;7.50;3.30;;;;;;;13.20;92.09;100799.53;6097071;23;20369;-66
2024/02/16 09:27:12;;;;;;;6.63;5.53;;;;;;;13.15;92.00;100802.09;6096728;23;20741;-66
2024/02/16 09:29:41;;;;;;;4.13;3.30;;;;;;;13.15;92.01;100798.53;6096349;23;20382;-66
2024/02/16 09:32:11;;;;;;;4.20;3.07;;;;;;;13.39;91.24;100797.69;6095985;23;20374;-66
2024/02/16 09:34:39;;;;;;;3.73;3.33;;;;;;;13.70;89.12;100799.50;6096617;23;20471;-66
2024/02/16 09:37:13;;;;;;;4.57;3.03;;;;;;;13.84;87.52;100801.03;6096130;23;20365;-68
2024/02/16 09:39:41;;;;;;;3.83;2.73;;;;;;;13.93;86.98;100794.22;6097542;23;20703;-66
2024/02/16 09:42:14;;;;;;;2.40;1.73;;;;;;;14.35;85.18;100798.72;6073006;23;20485;-67
2024/02/16 09:44:43;;;;;;;5.90;3.73;;;;;;;14.47;84.39;100800.72;6098076;23;20424;-64
2024/02/16 09:47:13;;;;;;;5.30;2.57;;;;;;;14.63;83.67;100800.03;6097767;23;20417;-68
2024/02/16 09:49:42;;;;;;;4.83;2.37;;;;;;;14.81;81.73;100800.00;6097383;23;20791;-67
2024/02/16 09:52:14;;;;;;;6.17;2.70;;;;;;;14.67;80.66;100801.25;6097406;23;20518;-66
2024/02/16 09:54:43;;;;;;;2.70;2.50;;;;;;;14.70;80.38;100807.06;6098551;23;20389;-67
2024/02/16 09:57:12;;;;;;;2.80;2.00;;;;;;;14.61;80.87;100813.09;6098391;23;20765;-65
2024/02/16 09:59:40;;;;;;;6.13;1.90;;;;;;;14.64;80.48;100815.34;6098079;23;20446;-65
2024/02/16 10:02:10;;;;;;;3.10;2.40;;;;;;;14.79;79.37;100804.84;6097802;23;20407;-66
2024/02/16 10:04:39;;;;;;;5.30;2.77;;;;;;;15.00;78.70;100817.97;6097099;23;20343;-65
2024/02/16 10:07:07;;;;;;;8.10;1.97;;;;;;;15.02;77.79;100806.81;6096741;23;20396;-63
2024/02/16 10:09:42;;;;;;;2.13;1.93;;;;;;;14.84;77.64;100805.00;6096316;23;20421;-66
2024/02/16 10:12:18;;;;;;;4.10;1.87;;;;;;;14.97;77.29;100812.97;6096489;23;20405;-68
2024/02/16 10:14:56;;;;;;;3.47;1.83;;;;;;;14.79;77.92;100807.56;6095500;23;20415;-66
2024/02/16 10:17:25;;;;;;;2.53;2.07;;;;;;;14.64;78.94;100807.16;6095545;23;20374;-65
2024/02/16 10:19:57;;;;;;;1.80;1.70;;;;;;;14.60;78.75;100808.69;6070760;23;20396;-66
2024/02/16 10:22:26;;;;;;;2.70;1.63;;;;;;;14.58;79.06;100818.97;6095788;23;20382;-66
2024/02/16 10:24:56;;;;;;;2.20;1.30;;;;;;;14.48;79.67;100814.06;6095461;23;20858;-66
2024/02/16 10:27:25;;;;;;;2.90;1.50;;;;;;;14.29;80.33;100810.53;6095102;23;20450;-65
2024/02/16 10:29:56;;;;;;;2.90;2.00;;;;;;;14.30;80.70;100814.91;6095333;23;20347;-66
2024/02/16 10:32:54;;;;;;;2.97;2.00;;;;;;;14.26;80.39;100804.69;6069897;23;20827;-67
2024/02/16 10:35:26;;;;;;;2.37;1.73;;;;;;;14.44;79.46;100804.69;6095183;23;20485;-66
2024/02/16 10:37:56;;;;;;;2.00;1.77;;;;;;;14.57;78.92;100809.16;6097177;23;20407;-67
2024/02/16 10:40:28;;;;;;;2.00;1.17;;;;;;;14.61;78.75;100808.47;6099758;23;20355;-66
2024/02/16 10:42:57;;;;;;;1.97;1.80;;;;;;;14.67;78.46;100796.63;6097166;23;20350;-67
2024/02/16 10:45:27;;;;;;;3.13;1.50;;;;;;;14.88;77.91;100798.00;6097545;23;20394;-67
2024/02/16 10:47:56;;;;;;;3.30;2.20;;;;;;;14.90;77.17;100801.34;6070871;23;20437;-66
2024/02/16 10:50:24;;;;;;;2.70;2.30;;;;;;;14.67;78.21;100810.25;6097401;23;20407;-64
2024/02/16 10:52:57;;;;;;;4.90;2.00;;;;;;;14.69;77.70;100807.31;6071402;23;20385;-66
2024/02/16 10:55:28;;;;;;;2.50;1.70;;;;;;;14.69;78.30;100805.41;6097758;23;20397;-66
2024/02/16 10:57:58;;;;;;;1.57;1.23;;;;;;;14.57;78.78;100807.25;6096899;23;20407;-67
2024/02/16 11:00:28;;;;;;;2.37;2.17;;;;;;;14.39;79.16;100793.66;6097365;23;20376;-65
2024/02/16 11:02:59;;;;;;;3.47;1.80;;;;;;;14.63;78.99;100791.88;6097487;23;20882;-67
2024/02/16 11:05:35;;;;;;;3.60;1.90;;;;;;;14.59;77.94;100790.69;6097779;23;20350;-66
2024/02/16 11:08:06;;;;;;;2.03;1.43;;;;;;;14.51;79.25;100786.41;6096625;23;20382;-66
2024/02/16 11:10:36;;;;;;;1.90;1.53;;;;;;;14.53;79.48;100773.38;6097058;23;20405;-66
2024/02/16 11:13:05;;;;;;;3.67;1.93;;;;;;;14.55;79.20;100770.44;6097171;23;20421;-64
2024/02/16 11:15:36;;;;;;;2.17;1.60;;;;;;;14.54;79.47;100771.47;6097277;23;20398;-66
2024/02/16 11:18:06;;;;;;;2.33;1.63;;;;;;;14.62;78.53;100771.97;6096919;23;20464;-66
2024/02/16 11:20:40;;;;;;;3.00;2.20;;;;;;;14.75;78.87;100784.59;6097412;23;20384;-67
2024/02/16 11:23:10;;;;;;;2.13;1.93;;;;;;;14.66;78.45;100783.25;6097670;23;20422;-66
2024/02/16 11:25:40;;;;;;;5.00;3.30;;;;;;;14.64;79.23;100771.75;6098001;23;20379;-66
2024/02/16 11:28:09;;;;;;;2.70;2.27;;;;;;;14.95;78.22;100771.50;6097259;23;20915;-66
2024/02/16 11:30:39;;;;;;;2.17;1.67;;;;;;;15.24;75.79;100777.94;6097536;23;20351;-66
2024/02/16 11:33:11;;;;;;;3.20;2.60;;;;;;;15.40;74.92;100771.78;6097964;23;20387;-66